createdAt,value
2019-02-15T00:00:12.790Z,81.72
2019-02-15T00:02:39.655Z,81.45
2019-02-15T00:05:06.583Z,80.59
2019-02-15T00:07:33.431Z,79.79
2019-02-15T00:10:00.314Z,80.67
2019-02-15T00:12:27.106Z,80.55
2019-02-15T00:14:53.950Z,81.43
2019-02-15T00:17:42.302Z,81.49
2019-02-15T00:20:13.052Z,80.83
2019-02-15T00:22:39.919Z,81.49
2019-02-15T00:25:06.756Z,81.71
2019-02-15T00:27:33.602Z,81.40
2019-02-15T00:30:00.435Z,80.63
2019-02-15T00:32:27.303Z,80.67
2019-02-15T00:34:54.135Z,80.46
2019-02-15T00:37:20.986Z,81.08
2019-02-15T00:39:47.826Z,81.39
2019-02-15T00:42:14.678Z,81.07
2019-02-15T00:44:41.515Z,81.41
2019-02-15T00:47:29.867Z,82.28
2019-02-15T00:50:05.690Z,82.20
2019-02-15T00:52:42.289Z,82.34
2019-02-15T00:55:15.792Z,82.17
2019-02-15T00:58:04.091Z,82.59
2019-02-15T01:00:51.531Z,82.57
2019-02-15T01:03:29.898Z,84.08
2019-02-15T01:06:02.430Z,85.38
2019-02-15T01:08:39.263Z,84.93
2019-02-15T01:11:11.393Z,85.22
2019-02-15T01:13:38.250Z,85.27
2019-02-15T01:16:05.077Z,84.26
2019-02-15T01:18:31.930Z,84.26
2019-02-15T01:20:58.762Z,85.14
2019-02-15T01:23:25.782Z,84.96
2019-02-15T01:26:02.635Z,84.33
2019-02-15T01:28:37.433Z,83.59
2019-02-15T01:31:29.874Z,82.72
2019-02-15T01:34:06.155Z,83.12
2019-02-15T01:36:41.319Z,83.17
2019-02-15T01:39:22.558Z,84.07
2019-02-15T01:42:00.569Z,83.76
2019-02-15T01:44:33.125Z,84.39
2019-02-15T01:47:09.118Z,84.01
2019-02-15T01:49:35.950Z,84.09
2019-02-15T01:52:02.806Z,84.11
2019-02-15T01:54:29.639Z,84.58
2019-02-15T01:56:56.495Z,83.99
2019-02-15T01:59:23.326Z,84.11
2019-02-15T02:01:50.182Z,84.19
2019-02-15T02:04:17.022Z,84.05
2019-02-15T02:06:43.855Z,84.55
2019-02-15T02:09:10.702Z,84.59
2019-02-15T02:11:37.538Z,84.90
2019-02-15T02:14:04.391Z,85.11
2019-02-15T02:16:31.233Z,85.14
2019-02-15T02:18:58.092Z,85.64
2019-02-15T02:21:24.934Z,85.97
2019-02-15T02:23:51.787Z,86.19
2019-02-15T02:26:18.626Z,86.27
2019-02-15T02:28:45.505Z,85.61
2019-02-15T02:31:12.339Z,85.74
2019-02-15T02:33:39.216Z,86.62
2019-02-15T02:36:06.067Z,86.00
2019-02-15T02:38:32.934Z,84.98
2019-02-15T02:40:59.762Z,85.23
2019-02-15T02:43:26.619Z,84.68
2019-02-15T02:45:53.455Z,85.60
2019-02-15T02:48:20.306Z,85.94
2019-02-15T02:50:47.143Z,84.92
2019-02-15T02:53:13.994Z,85.23
2019-02-15T02:55:40.833Z,84.92
2019-02-15T02:58:07.682Z,84.95
2019-02-15T03:00:34.521Z,85.37
2019-02-15T03:03:01.374Z,85.09
2019-02-15T03:05:28.264Z,85.71
2019-02-15T03:07:55.087Z,85.50
2019-02-15T03:10:21.938Z,85.87
2019-02-15T03:12:48.790Z,85.64
2019-02-15T03:15:15.636Z,85.95
2019-02-15T03:17:42.476Z,86.17
2019-02-15T03:20:09.314Z,86.87
2019-02-15T03:22:36.155Z,87.38
2019-02-15T03:25:03.040Z,86.67
2019-02-15T03:27:29.872Z,87.21
2019-02-15T03:29:56.711Z,86.39
2019-02-15T03:32:23.547Z,85.21
2019-02-15T03:34:50.416Z,85.70
2019-02-15T03:37:36.823Z,85.38
2019-02-15T03:40:13.562Z,84.70
2019-02-15T03:42:40.403Z,84.69
2019-02-15T03:45:08.132Z,84.00
2019-02-15T03:47:34.289Z,84.41
2019-02-15T03:50:01.173Z,84.21
2019-02-15T03:52:28.018Z,84.24
2019-02-15T03:54:54.876Z,84.98
2019-02-15T03:57:21.717Z,85.16
2019-02-15T03:59:48.886Z,85.87
2019-02-15T04:02:15.718Z,84.88
2019-02-15T04:04:42.557Z,85.53
2019-02-15T04:07:09.395Z,85.92
2019-02-15T04:09:36.264Z,85.07
2019-02-15T04:12:03.106Z,85.56
2019-02-15T04:14:32.814Z,84.77
2019-02-15T04:16:56.807Z,85.48
2019-02-15T04:19:23.658Z,84.20
2019-02-15T04:21:50.503Z,85.63
2019-02-15T04:24:17.347Z,84.72
2019-02-15T04:26:44.194Z,85.10
2019-02-15T04:29:11.042Z,85.95
2019-02-15T04:31:37.959Z,86.29
2019-02-15T04:34:04.807Z,86.71
2019-02-15T04:36:31.658Z,86.87
2019-02-15T04:38:58.502Z,87.12
2019-02-15T04:41:25.334Z,86.45
2019-02-15T04:43:52.190Z,87.42
2019-02-15T04:46:19.030Z,88.06
2019-02-15T04:48:45.883Z,87.72
2019-02-15T04:51:12.746Z,88.18
2019-02-15T04:53:39.583Z,87.96
2019-02-15T04:56:06.417Z,88.10
2019-02-15T04:58:33.258Z,88.54
2019-02-15T05:01:00.104Z,88.35
2019-02-15T05:03:26.930Z,87.15
2019-02-15T05:05:53.867Z,89.08
2019-02-15T05:08:20.703Z,88.89
2019-02-15T05:10:47.851Z,88.86
2019-02-15T05:13:14.606Z,89.49
2019-02-15T05:15:41.479Z,89.81
2019-02-15T05:18:08.302Z,89.60
2019-02-15T05:20:35.158Z,89.93
2019-02-15T05:23:02.044Z,89.25
2019-02-15T05:25:29.859Z,89.77
2019-02-15T05:27:56.693Z,89.51
2019-02-15T05:30:23.721Z,90.00
2019-02-15T05:32:50.566Z,90.03
2019-02-15T05:35:17.508Z,90.03
2019-02-15T05:37:44.355Z,90.90
2019-02-15T05:40:11.199Z,90.80
2019-02-15T05:42:38.047Z,89.77
2019-02-15T05:45:05.211Z,89.87
2019-02-15T05:47:32.033Z,90.54
2019-02-15T05:49:58.906Z,91.72
2019-02-15T05:52:25.731Z,91.58
2019-02-15T05:54:52.695Z,91.73
2019-02-15T05:57:19.522Z,91.21
2019-02-15T05:59:46.455Z,90.43
2019-02-15T06:02:13.248Z,90.42
2019-02-15T06:04:40.084Z,90.94
2019-02-15T06:07:06.933Z,89.87
2019-02-15T06:09:33.760Z,90.14
2019-02-15T06:12:00.586Z,90.77
2019-02-15T06:14:27.454Z,90.21
2019-02-15T06:16:54.323Z,90.14
2019-02-15T06:19:21.169Z,90.36
2019-02-15T06:21:48.132Z,90.06
2019-02-15T06:24:14.870Z,90.45
2019-02-15T06:26:41.805Z,90.11
2019-02-15T06:29:08.672Z,89.40
2019-02-15T06:31:35.520Z,90.10
2019-02-15T06:34:02.347Z,88.98
2019-02-15T06:36:32.358Z,88.66
2019-02-15T06:38:59.212Z,88.27
2019-02-15T06:41:26.083Z,88.99
2019-02-15T06:43:52.910Z,88.53
2019-02-15T06:46:19.758Z,89.63
2019-02-15T06:48:46.590Z,89.99
2019-02-15T06:51:13.438Z,90.24
2019-02-15T06:53:40.299Z,90.19
2019-02-15T06:56:07.134Z,89.03
2019-02-15T06:58:33.975Z,89.29
2019-02-15T07:01:06.606Z,88.34
2019-02-15T07:03:40.815Z,89.11
2019-02-15T07:06:07.662Z,88.79
2019-02-15T07:08:34.498Z,88.68
2019-02-15T07:11:01.350Z,89.08
2019-02-15T07:13:28.199Z,88.06
2019-02-15T07:15:55.050Z,88.55
2019-02-15T07:18:21.882Z,88.84
2019-02-15T07:20:48.738Z,88.19
2019-02-15T07:23:15.574Z,88.74
2019-02-15T07:25:42.433Z,89.21
2019-02-15T07:28:09.287Z,89.96
2019-02-15T07:30:36.129Z,89.57
2019-02-15T07:33:02.959Z,89.42
2019-02-15T07:35:29.818Z,90.02
2019-02-15T07:37:56.653Z,89.72
2019-02-15T07:40:23.506Z,89.84
2019-02-15T07:42:50.595Z,89.83
2019-02-15T07:45:17.998Z,89.15
2019-02-15T07:47:44.526Z,88.39
2019-02-15T07:50:12.082Z,87.08
2019-02-15T07:52:38.938Z,86.63
2019-02-15T07:55:05.817Z,86.89
2019-02-15T07:57:33.963Z,86.27
2019-02-15T08:00:00.651Z,85.64
2019-02-15T08:02:26.407Z,86.09
2019-02-15T08:04:53.250Z,86.52
2019-02-15T08:07:20.107Z,86.41
2019-02-15T08:09:46.957Z,85.21
2019-02-15T08:12:13.819Z,85.44
2019-02-15T08:14:40.658Z,84.81
2019-02-15T08:17:07.514Z,83.58
2019-02-15T08:19:34.358Z,82.84
2019-02-15T08:22:01.210Z,83.49
2019-02-15T08:24:28.064Z,82.93
2019-02-15T08:26:54.943Z,83.31
2019-02-15T08:29:21.789Z,82.07
2019-02-15T08:31:48.657Z,82.28
2019-02-15T08:34:15.498Z,82.10
2019-02-15T08:36:42.343Z,81.45
2019-02-15T08:39:09.181Z,81.93
2019-02-15T08:41:36.035Z,81.46
2019-02-15T08:44:02.861Z,80.08
2019-02-15T08:46:29.753Z,80.45
2019-02-15T08:48:56.590Z,79.90
2019-02-15T08:51:23.442Z,79.35
2019-02-15T08:53:50.484Z,79.70
2019-02-15T08:56:17.202Z,79.06
2019-02-15T08:58:44.046Z,79.44
2019-02-15T09:01:11.003Z,79.68
2019-02-15T09:03:37.851Z,78.49
2019-02-15T09:06:04.703Z,78.98
2019-02-15T09:08:31.561Z,78.29
2019-02-15T09:10:58.399Z,77.75
2019-02-15T09:13:25.239Z,78.50
2019-02-15T09:15:52.078Z,76.76
2019-02-15T09:18:18.934Z,76.14
2019-02-15T09:20:45.781Z,76.41
2019-02-15T09:23:12.641Z,75.50
2019-02-15T09:25:39.482Z,76.09
2019-02-15T09:28:21.149Z,74.96
2019-02-15T09:30:50.806Z,74.91
2019-02-15T09:33:17.675Z,73.03
2019-02-15T09:35:44.507Z,75.26
2019-02-15T09:38:11.369Z,74.36
2019-02-15T09:40:38.206Z,73.69
2019-02-15T09:43:05.097Z,73.49
2019-02-15T09:45:33.024Z,71.89
2019-02-15T09:47:58.806Z,71.07
2019-02-15T09:50:25.662Z,71.73
2019-02-15T09:52:52.519Z,70.92
2019-02-15T09:55:19.357Z,71.65
2019-02-15T09:57:46.257Z,69.67
2019-02-15T10:00:13.111Z,69.95
2019-02-15T10:02:39.971Z,68.30
2019-02-15T10:05:06.827Z,70.46
2019-02-15T10:07:33.783Z,67.38
2019-02-15T10:10:00.642Z,67.46
2019-02-15T10:12:27.533Z,67.67
2019-02-15T10:14:54.343Z,68.94
2019-02-15T10:17:21.171Z,68.35
2019-02-15T10:19:48.042Z,67.99
2019-02-15T10:22:14.855Z,66.64
2019-02-15T10:24:41.686Z,67.88
2019-02-15T10:27:08.568Z,68.38
2019-02-15T10:29:35.401Z,67.49
2019-02-15T10:32:02.254Z,68.50
2019-02-15T10:34:29.098Z,69.18
2019-02-15T10:36:55.961Z,67.63
2019-02-15T10:39:22.910Z,67.90
2019-02-15T10:41:49.785Z,67.33
2019-02-15T10:44:16.621Z,69.18
2019-02-15T10:46:43.474Z,68.33
2019-02-15T10:49:10.307Z,68.57
2019-02-15T10:51:37.161Z,67.30
2019-02-15T10:54:04.000Z,67.70
2019-02-15T10:56:30.842Z,67.45
2019-02-15T10:58:57.683Z,67.42
2019-02-15T11:01:24.541Z,67.49
2019-02-15T11:03:51.367Z,67.44
2019-02-15T11:06:18.234Z,66.31
2019-02-15T11:08:45.066Z,66.16
2019-02-15T11:11:11.914Z,66.48
2019-02-15T11:13:38.737Z,64.24
2019-02-15T11:16:05.616Z,64.12
2019-02-15T11:18:32.454Z,64.24
2019-02-15T11:20:59.306Z,62.53
2019-02-15T11:23:26.138Z,62.23
2019-02-15T11:25:53.027Z,63.16
2019-02-15T11:28:19.830Z,65.45
2019-02-15T11:30:46.691Z,64.12
2019-02-15T11:33:13.510Z,61.35
2019-02-15T11:35:40.354Z,62.92
2019-02-15T11:38:07.183Z,62.61
2019-02-15T11:40:34.022Z,62.31
2019-02-15T11:43:00.943Z,62.21
2019-02-15T11:45:28.458Z,61.58
2019-02-15T11:47:55.296Z,62.11
2019-02-15T11:50:22.116Z,60.61
2019-02-15T11:52:48.958Z,61.87
2019-02-15T11:55:15.808Z,59.60
2019-02-15T11:57:42.674Z,59.65
2019-02-15T12:00:14.224Z,60.88
2019-02-15T12:02:37.662Z,58.51
2019-02-15T12:05:05.198Z,58.82
2019-02-15T12:07:32.050Z,60.20
2019-02-15T12:09:58.958Z,59.41
2019-02-15T12:12:25.811Z,58.74
2019-02-15T12:14:52.682Z,59.21
2019-02-15T12:17:20.477Z,60.75
2019-02-15T12:19:47.315Z,58.91
2019-02-15T12:22:14.202Z,58.76
2019-02-15T12:24:41.131Z,58.77
2019-02-15T12:27:08.005Z,58.98
2019-02-15T12:29:34.922Z,56.96
2019-02-15T12:32:01.874Z,56.75
2019-02-15T12:34:28.702Z,55.43
2019-02-15T12:36:55.550Z,57.56
2019-02-15T12:39:22.371Z,57.73
2019-02-15T12:41:49.210Z,56.10
2019-02-15T12:44:16.088Z,59.24
2019-02-15T12:46:42.926Z,56.37
2019-02-15T12:49:09.750Z,56.50
2019-02-15T12:51:36.585Z,56.40
2019-02-15T12:54:03.454Z,54.47
2019-02-15T12:56:30.399Z,56.92
2019-02-15T12:58:57.262Z,55.34
2019-02-15T13:01:24.094Z,56.59
2019-02-15T13:03:50.922Z,55.49
2019-02-15T13:06:17.799Z,56.17
2019-02-15T13:08:44.742Z,55.18
2019-02-15T13:11:11.602Z,55.44
2019-02-15T13:13:38.487Z,55.36
2019-02-15T13:16:05.337Z,55.38
2019-02-15T13:18:32.202Z,55.24
2019-02-15T13:20:59.042Z,55.85
2019-02-15T13:23:25.902Z,55.43
2019-02-15T13:25:52.760Z,55.06
2019-02-15T13:28:19.579Z,55.17
2019-02-15T13:30:46.483Z,56.30
2019-02-15T13:33:13.373Z,55.88
2019-02-15T13:35:40.186Z,52.53
2019-02-15T13:38:07.039Z,55.96
2019-02-15T13:40:33.867Z,57.54
2019-02-15T13:43:00.702Z,53.20
2019-02-15T13:45:29.538Z,55.47
2019-02-15T13:47:55.694Z,53.78
2019-02-15T13:50:22.522Z,54.62
2019-02-15T13:52:49.366Z,53.43
2019-02-15T13:55:16.186Z,53.34
2019-02-15T13:57:43.223Z,52.48
2019-02-15T14:00:10.601Z,52.11
2019-02-15T14:02:37.437Z,51.72
2019-02-15T14:05:04.383Z,52.47
2019-02-15T14:07:31.238Z,51.22
2019-02-15T14:09:58.086Z,51.75
2019-02-15T14:12:24.911Z,50.88
2019-02-15T14:14:51.771Z,54.09
2019-02-15T14:17:18.623Z,53.97
2019-02-15T14:19:45.461Z,54.63
2019-02-15T14:22:12.291Z,56.72
2019-02-15T14:24:39.142Z,60.54
2019-02-15T14:27:06.842Z,58.56
2019-02-15T14:29:33.718Z,60.99
2019-02-15T14:32:00.631Z,62.73
2019-02-15T14:34:27.495Z,62.71
2019-02-15T14:36:54.324Z,63.39
2019-02-15T14:39:21.172Z,62.69
2019-02-15T14:41:48.127Z,64.22
2019-02-15T14:44:14.842Z,62.78
2019-02-15T14:46:41.675Z,63.45
2019-02-15T14:49:08.511Z,63.42
2019-02-15T14:51:35.350Z,60.87
2019-02-15T14:54:02.206Z,62.17
2019-02-15T14:56:29.029Z,62.70
2019-02-15T14:58:55.882Z,62.08
2019-02-15T15:01:22.738Z,62.63
2019-02-15T15:03:49.738Z,63.45
2019-02-15T15:06:16.554Z,64.78
2019-02-15T15:08:43.409Z,64.86
2019-02-15T15:12:53.698Z,66.35
2019-02-15T15:15:20.597Z,67.45
2019-02-15T15:17:47.448Z,65.18
2019-02-15T15:20:14.297Z,67.73
2019-02-15T15:22:41.211Z,67.60
2019-02-15T15:25:08.673Z,67.74
2019-02-15T15:27:35.491Z,68.72
2019-02-15T15:30:02.395Z,68.26
2019-02-15T15:32:29.222Z,69.03
2019-02-15T15:34:56.158Z,69.73
2019-02-15T15:37:23.012Z,69.19
2019-02-15T15:39:49.888Z,67.56
2019-02-15T15:42:16.774Z,68.35
2019-02-15T15:44:43.638Z,68.66
2019-02-15T15:47:10.468Z,68.87
2019-02-15T15:49:37.311Z,70.17
2019-02-15T15:52:04.137Z,71.13
2019-02-15T15:54:30.991Z,69.12
2019-02-15T15:56:57.823Z,68.39
2019-02-15T15:59:24.627Z,69.02
2019-02-15T16:01:51.522Z,67.51
2019-02-15T16:04:18.367Z,69.01
2019-02-15T16:06:45.798Z,68.55
2019-02-15T16:09:12.642Z,70.73
2019-02-15T16:11:39.471Z,69.50
2019-02-15T16:14:06.314Z,70.11
2019-02-15T16:16:33.142Z,69.74
2019-02-15T16:19:00.020Z,70.72
2019-02-15T16:21:26.830Z,71.95
2019-02-15T16:23:53.661Z,70.06
2019-02-15T16:26:20.558Z,69.68
2019-02-15T16:28:47.390Z,70.78
2019-02-15T16:31:14.231Z,73.32
2019-02-15T16:33:41.051Z,73.72
2019-02-15T16:36:07.906Z,73.99
2019-02-15T16:38:34.726Z,74.17
2019-02-15T16:41:01.578Z,73.15
2019-02-15T16:43:28.402Z,73.55
2019-02-15T16:45:55.234Z,73.46
2019-02-15T16:48:22.128Z,74.24
2019-02-15T16:50:48.966Z,74.24
2019-02-15T16:53:15.798Z,73.13
2019-02-15T16:55:42.671Z,72.15
2019-02-15T16:58:09.498Z,71.70
2019-02-15T17:00:36.356Z,71.25
2019-02-15T17:03:03.185Z,71.00
2019-02-15T17:05:30.046Z,70.35
2019-02-15T17:07:56.894Z,68.33
2019-02-15T17:10:23.759Z,69.49
2019-02-15T17:12:50.654Z,69.51
2019-02-15T17:15:17.505Z,70.07
2019-02-15T17:17:44.363Z,72.51
2019-02-15T17:20:11.213Z,73.36
2019-02-15T17:22:39.616Z,74.29
2019-02-15T17:25:07.370Z,74.16
2019-02-15T17:27:34.210Z,74.38
2019-02-15T17:30:01.134Z,74.70
2019-02-15T17:32:27.942Z,73.85
2019-02-15T17:34:54.803Z,73.54
2019-02-15T17:37:21.726Z,72.66
2019-02-15T17:39:48.559Z,71.04
2019-02-15T17:42:15.462Z,71.09
2019-02-15T17:44:42.362Z,71.12
2019-02-15T17:47:09.218Z,72.92
2019-02-15T17:49:36.054Z,73.58
2019-02-15T17:52:02.903Z,73.15
2019-02-15T17:54:29.734Z,72.61
2019-02-15T17:56:56.606Z,71.78
2019-02-15T17:59:23.472Z,71.98
2019-02-15T18:01:50.319Z,72.09
2019-02-15T18:04:17.159Z,71.21
2019-02-15T18:06:44.071Z,69.90
2019-02-15T18:09:10.894Z,68.80
2019-02-15T18:11:37.766Z,68.06
2019-02-15T18:14:04.609Z,67.93
2019-02-15T18:16:31.465Z,67.89
2019-02-15T18:18:58.303Z,68.36
2019-02-15T18:21:25.150Z,68.31
2019-02-15T18:23:52.010Z,70.43
2019-02-15T18:26:18.854Z,71.59
2019-02-15T18:28:45.686Z,72.50
2019-02-15T18:31:12.545Z,72.28
2019-02-15T18:33:39.362Z,70.77
2019-02-15T18:36:06.218Z,70.48
2019-02-15T18:38:33.041Z,70.59
2019-02-15T18:40:59.897Z,71.51
2019-02-15T18:43:26.723Z,71.73
2019-02-15T18:45:53.582Z,71.60
2019-02-15T18:48:20.426Z,72.34
2019-02-15T18:50:47.335Z,73.41
2019-02-15T18:53:14.183Z,73.64
2019-02-15T18:55:41.067Z,73.49
2019-02-15T18:58:07.950Z,74.08
2019-02-15T19:00:34.797Z,75.14
2019-02-15T19:03:01.658Z,76.07
2019-02-15T19:05:28.604Z,76.48
2019-02-15T19:07:55.466Z,76.52
2019-02-15T19:10:22.340Z,76.68
2019-02-15T19:12:49.246Z,76.42
2019-02-15T19:15:16.086Z,76.16
2019-02-15T19:17:42.954Z,75.49
2019-02-15T19:20:10.401Z,74.59
2019-02-15T19:22:37.270Z,74.50
2019-02-15T19:25:04.912Z,75.19
2019-02-15T19:27:31.774Z,74.06
2019-02-15T19:29:58.621Z,73.98
2019-02-15T19:32:25.490Z,73.04
2019-02-15T19:34:52.346Z,73.36
2019-02-15T19:37:19.228Z,71.65
2019-02-15T19:39:46.080Z,71.22
2019-02-15T19:42:16.301Z,71.30
2019-02-15T19:44:43.158Z,71.15
2019-02-15T19:47:10.051Z,70.60
2019-02-15T19:49:39.102Z,69.71
2019-02-15T19:52:03.931Z,69.77
2019-02-15T19:54:30.807Z,70.51
2019-02-15T19:56:57.865Z,69.47
2019-02-15T19:59:24.774Z,69.60
2019-02-15T20:01:51.754Z,69.84
2019-02-15T20:04:18.606Z,70.81
2019-02-15T20:06:45.570Z,71.13
2019-02-15T20:09:12.581Z,72.44
2019-02-15T20:11:39.450Z,71.39
2019-02-15T20:14:06.331Z,71.25
2019-02-15T20:16:33.469Z,70.76
2019-02-15T20:19:00.468Z,70.80
2019-02-15T20:21:27.329Z,70.83
2019-02-15T20:23:54.243Z,70.74
2019-02-15T20:26:21.126Z,72.04
2019-02-15T20:28:48.063Z,71.74
2019-02-15T20:31:14.969Z,71.90
2019-02-15T20:33:41.943Z,73.26
2019-02-15T20:36:08.803Z,73.00
2019-02-15T20:38:35.718Z,73.46
2019-02-15T20:41:02.674Z,73.26
2019-02-15T20:43:29.637Z,74.39
2019-02-15T20:45:56.847Z,75.05
2019-02-15T20:48:23.791Z,75.58
2019-02-15T20:50:50.522Z,75.99
2019-02-15T20:53:17.411Z,76.34
2019-02-15T20:55:44.258Z,76.20
2019-02-15T20:58:11.147Z,76.12
2019-02-15T21:00:38.072Z,75.97
2019-02-15T21:03:04.979Z,76.04
2019-02-15T21:05:31.803Z,76.17
2019-02-15T21:07:58.678Z,76.30
2019-02-15T21:10:25.531Z,75.46
2019-02-15T21:12:52.406Z,76.43
2019-02-15T21:15:19.247Z,76.86
2019-02-15T21:17:46.201Z,77.86
2019-02-15T21:20:12.990Z,78.48
2019-02-15T21:22:39.858Z,79.65
2019-02-15T21:25:08.182Z,80.42
2019-02-15T21:27:35.049Z,80.70
2019-02-15T21:30:01.962Z,79.55
2019-02-15T21:32:28.798Z,78.17
2019-02-15T21:34:55.634Z,78.25
2019-02-15T21:37:22.489Z,77.02
2019-02-15T21:39:49.339Z,77.32
2019-02-15T21:42:16.524Z,78.70
2019-02-15T21:44:43.354Z,78.03
2019-02-15T21:47:10.222Z,78.60
2019-02-15T21:49:38.497Z,78.93
2019-02-15T21:52:04.024Z,79.83
2019-02-15T21:54:30.867Z,80.50
2019-02-15T21:56:57.714Z,79.13
2019-02-15T21:59:24.589Z,79.03
2019-02-15T22:01:51.425Z,79.12
2019-02-15T22:04:18.286Z,77.41
2019-02-15T22:06:45.129Z,79.21
2019-02-15T22:09:12.006Z,80.22
2019-02-15T22:11:39.863Z,79.71
2019-02-15T22:14:06.709Z,80.71
2019-02-15T22:16:33.538Z,80.16
2019-02-15T22:19:00.586Z,81.02
2019-02-15T22:21:27.435Z,81.05
2019-02-15T22:23:54.294Z,81.48
2019-02-15T22:26:21.130Z,80.89
2019-02-15T22:28:48.083Z,81.64
2019-02-15T22:31:14.842Z,82.80
2019-02-15T22:33:41.695Z,82.71
2019-02-15T22:36:08.597Z,81.65
2019-02-15T22:38:35.442Z,79.35
2019-02-15T22:41:10.514Z,82.74
2019-02-15T22:43:37.370Z,82.36
2019-02-15T22:46:04.199Z,82.69
2019-02-15T22:48:31.042Z,80.40
2019-02-15T22:50:58.099Z,79.24
2019-02-15T22:53:24.954Z,79.65
2019-02-15T22:55:51.795Z,80.27
2019-02-15T22:58:18.635Z,82.75
2019-02-15T23:00:50.489Z,82.00
2019-02-15T23:03:20.210Z,79.95
2019-02-15T23:05:47.050Z,78.28
2019-02-15T23:08:13.914Z,81.34
2019-02-15T23:10:40.833Z,83.07
2019-02-15T23:13:07.658Z,83.09
2019-02-15T23:15:34.494Z,82.40
2019-02-15T23:18:01.358Z,82.83
2019-02-15T23:20:28.206Z,83.37
2019-02-15T23:22:55.066Z,83.75
2019-02-15T23:25:21.910Z,83.86
2019-02-15T23:27:48.763Z,83.62
2019-02-15T23:30:15.599Z,83.16
2019-02-15T23:32:42.458Z,84.00
2019-02-15T23:35:09.309Z,84.60
2019-02-15T23:37:36.142Z,84.40
2019-02-15T23:40:03.349Z,85.02
2019-02-15T23:45:10.422Z,86.01
2019-02-15T23:47:37.255Z,85.65
2019-02-15T23:50:04.181Z,87.22
2019-02-15T23:52:31.026Z,86.79
2019-02-15T23:54:57.891Z,87.08
2019-02-15T23:57:24.724Z,87.46
2019-02-15T23:59:51.585Z,87.57
